Time;durP1;ratioP1;P1;durP2;ratioP2;P2;SDS_P1;SDS_P2;PMS_P1;PMS_P2;Temp;Humidity;BMP_temperature;BMP_pressure;BME280_temperature;BME280_humidity;BME280_pressure;Samples;Min_cycle;Max_cycle;Signal;HPM_P1;HPM_P2
2022/03/20 00:00:43;;;;;;;3.60;1.55;;;5.60;99.90;;;;;;4964983;28;20043;-73
2022/03/20 00:03:11;;;;;;;2.13;2.03;;;5.60;99.90;;;;;;4965927;28;20057;-73
2022/03/20 00:05:39;;;;;;;1.88;1.77;;;5.60;99.90;;;;;;4966007;28;20395;-73
2022/03/20 00:08:14;;;;;;;2.67;2.53;;;5.60;99.90;;;;;;4965646;28;20530;-73
2022/03/20 00:10:45;;;;;;;2.55;2.35;;;5.60;99.90;;;;;;4965890;28;20042;-73
2022/03/20 00:13:12;;;;;;;2.97;2.78;;;5.60;99.90;;;;;;4965567;28;20050;-73
2022/03/20 00:15:42;;;;;;;6.15;2.15;;;5.50;99.90;;;;;;4965752;28;20047;-73
2022/03/20 00:18:08;;;;;;;2.83;2.60;;;5.50;99.90;;;;;;4966526;28;20863;-73
2022/03/20 00:20:35;;;;;;;2.92;2.47;;;5.50;99.90;;;;;;4966991;28;20057;-73
2022/03/20 00:23:07;;;;;;;2.63;2.42;;;5.50;99.90;;;;;;4965084;28;20129;-72
2022/03/20 00:25:38;;;;;;;2.83;2.08;;;5.40;99.90;;;;;;4965183;28;20039;-72
2022/03/20 00:28:07;;;;;;;3.50;3.13;;;5.40;99.90;;;;;;4980760;28;20581;-73
2022/03/20 00:30:33;;;;;;;5.85;1.75;;;5.40;99.90;;;;;;4964919;28;20042;-73
2022/03/20 00:32:59;;;;;;;2.03;1.92;;;5.40;99.90;;;;;;4965543;28;20074;-73
2022/03/20 00:35:25;;;;;;;1.47;1.37;;;5.40;99.90;;;;;;4965248;28;20644;-73
2022/03/20 00:37:50;;;;;;;5.03;3.30;;;5.40;99.90;;;;;;4964648;28;20126;-72
2022/03/20 00:40:16;;;;;;;4.00;2.53;;;5.30;99.90;;;;;;4947031;28;20103;-72
2022/03/20 00:42:42;;;;;;;4.43;2.23;;;5.30;99.90;;;;;;4946034;28;20142;-73
2022/03/20 00:45:08;;;;;;;2.22;2.03;;;5.30;99.90;;;;;;4953699;28;20126;-73
2022/03/20 00:47:34;;;;;;;2.92;2.40;;;5.20;99.90;;;;;;4966040;28;20042;-73
2022/03/20 00:50:00;;;;;;;6.43;1.40;;;5.20;99.90;;;;;;4965410;28;20049;-73
2022/03/20 00:52:25;;;;;;;2.45;2.25;;;5.10;99.90;;;;;;4964275;28;20097;-73
2022/03/20 00:54:51;;;;;;;2.10;1.90;;;5.10;99.90;;;;;;4965136;28;20043;-73
2022/03/20 00:57:17;;;;;;;2.53;2.33;;;5.10;99.90;;;;;;4965140;28;20050;-73
2022/03/20 00:59:42;;;;;;;7.40;2.67;;;5.10;99.90;;;;;;4964824;28;20327;-72
2022/03/20 01:02:08;;;;;;;12.50;2.93;;;5.10;99.90;;;;;;4965337;28;20202;-72
2022/03/20 01:04:34;;;;;;;3.63;3.23;;;5.00;99.90;;;;;;4965452;28;20568;-72
2022/03/20 01:07:01;;;;;;;2.47;2.27;;;5.00;99.90;;;;;;4964624;28;20053;-72
2022/03/20 01:09:28;;;;;;;2.50;2.23;;;5.00;99.90;;;;;;4952923;28;20050;-73
2022/03/20 01:11:55;;;;;;;5.13;1.70;;;5.00;99.90;;;;;;4945479;28;20430;-73
2022/03/20 01:14:21;;;;;;;2.47;2.37;;;4.90;99.90;;;;;;4954735;28;20055;-73
2022/03/20 01:16:46;;;;;;;2.40;2.20;;;4.90;99.90;;;;;;4964935;28;20097;-73
2022/03/20 01:19:12;;;;;;;1.50;1.43;;;4.90;99.90;;;;;;4964400;28;20043;-73
2022/03/20 01:21:37;;;;;;;4.40;1.57;;;4.90;99.90;;;;;;4965045;28;20121;-72
2022/03/20 01:24:03;;;;;;;4.87;2.73;;;4.90;99.90;;;;;;4963774;28;20126;-72
2022/03/20 01:26:29;;;;;;;3.17;2.70;;;4.80;99.90;;;;;;4964153;28;20053;-73
2022/03/20 01:28:55;;;;;;;1.47;1.37;;;4.80;99.90;;;;;;4964432;28;20365;-72
2022/03/20 01:31:20;;;;;;;4.70;3.47;;;4.80;99.90;;;;;;4964082;28;20441;-72
2022/03/20 01:33:46;;;;;;;3.20;2.73;;;4.70;99.90;;;;;;4964403;28;20047;-73
2022/03/20 01:36:12;;;;;;;4.17;2.87;;;4.70;99.90;;;;;;4964260;28;20424;-73
2022/03/20 01:38:40;;;;;;;3.70;2.50;;;4.70;99.90;;;;;;4978318;28;20492;-72
2022/03/20 01:41:06;;;;;;;2.03;1.93;;;4.70;99.90;;;;;;4945450;28;20043;-72
2022/03/20 01:43:31;;;;;;;5.97;3.90;;;4.60;99.90;;;;;;4943731;28;20106;-72
2022/03/20 01:45:57;;;;;;;5.33;4.00;;;4.60;99.90;;;;;;4959843;28;20049;-73
2022/03/20 01:48:23;;;;;;;3.03;2.77;;;4.60;99.90;;;;;;4963399;28;20054;-73
2022/03/20 01:50:48;;;;;;;1.57;1.33;;;4.60;99.90;;;;;;4964199;28;20039;-73
2022/03/20 01:53:17;;;;;;;6.33;2.57;;;4.60;99.90;;;;;;4962860;28;20047;-73
2022/03/20 01:55:43;;;;;;;2.50;2.30;;;4.50;99.90;;;;;;4964090;28;20058;-73
2022/03/20 01:58:09;;;;;;;1.20;1.20;;;4.50;99.90;;;;;;4963391;28;20505;-72
2022/03/20 02:00:34;;;;;;;4.53;2.93;;;4.50;99.90;;;;;;4964460;28;20081;-72
2022/03/20 02:03:00;;;;;;;3.10;2.80;;;4.50;99.90;;;;;;4963435;28;20053;-73
2022/03/20 02:05:26;;;;;;;2.47;2.27;;;4.50;99.90;;;;;;4963290;28;20051;-72
2022/03/20 02:07:51;;;;;;;2.67;2.47;;;4.50;99.90;;;;;;4962920;28;20047;-73
2022/03/20 02:10:17;;;;;;;2.17;1.93;;;4.50;99.90;;;;;;4963803;28;20050;-72
2022/03/20 02:12:43;;;;;;;2.47;2.13;;;4.40;99.90;;;;;;4963778;28;20070;-73
2022/03/20 02:15:13;;;;;;;3.40;3.10;;;4.40;99.90;;;;;;4961827;28;20059;-73
2022/03/20 02:17:41;;;;;;;3.27;1.93;;;4.40;99.90;;;;;;4963246;28;20054;-72
2022/03/20 02:20:08;;;;;;;4.37;2.30;;;4.40;99.90;;;;;;4964132;28;20039;-73
2022/03/20 02:22:37;;;;;;;8.33;2.80;;;4.30;99.90;;;;;;4961419;28;20557;-73
2022/03/20 02:25:08;;;;;;;3.13;2.90;;;4.30;99.90;;;;;;4963370;28;20054;-73
2022/03/20 02:27:38;;;;;;;2.93;2.67;;;4.30;99.90;;;;;;4963822;28;20129;-72
2022/03/20 02:30:12;;;;;;;12.10;3.33;;;4.30;99.90;;;;;;4963967;28;20042;-72
2022/03/20 02:32:40;;;;;;;3.67;3.03;;;4.30;99.90;;;;;;4963710;28;20513;-72
2022/03/20 02:35:07;;;;;;;2.40;2.30;;;4.20;99.90;;;;;;4963842;28;20062;-72
2022/03/20 02:37:33;;;;;;;7.00;2.70;;;4.30;99.90;;;;;;4955871;28;20057;-73
2022/03/20 02:40:01;;;;;;;2.30;2.10;;;4.20;99.90;;;;;;4944142;28;20402;-72
2022/03/20 02:42:27;;;;;;;2.03;1.93;;;4.20;99.90;;;;;;4943470;28;20450;-73
2022/03/20 02:44:56;;;;;;;3.97;3.67;;;4.20;99.90;;;;;;4951656;28;20409;-73
2022/03/20 02:47:26;;;;;;;3.97;2.57;;;4.20;99.90;;;;;;4963624;28;20050;-73
2022/03/20 02:49:58;;;;;;;5.87;4.63;;;4.20;99.90;;;;;;4964068;28;20045;-73
2022/03/20 02:52:29;;;;;;;3.60;3.30;;;4.20;99.90;;;;;;4962139;28;20058;-73
2022/03/20 02:55:00;;;;;;;3.23;2.47;;;4.10;99.90;;;;;;4961947;28;20294;-73
2022/03/20 02:57:27;;;;;;;4.73;2.57;;;4.10;99.90;;;;;;4962990;28;20051;-73
2022/03/20 02:59:52;;;;;;;8.30;3.30;;;4.10;99.90;;;;;;4963859;28;20050;-73
2022/03/20 03:02:18;;;;;;;7.00;4.10;;;4.10;99.90;;;;;;4963644;28;20049;-73
2022/03/20 03:04:43;;;;;;;3.10;2.73;;;4.10;99.90;;;;;;4962204;28;20061;-73
2022/03/20 03:07:09;;;;;;;3.10;2.80;;;4.10;99.90;;;;;;4960027;28;20125;-73
2022/03/20 03:12:19;;;;;;;2.97;2.77;;;4.10;99.90;;;;;;4944139;28;20082;-73
2022/03/20 03:17:29;;;;;;;3.77;3.47;;;4.00;99.90;;;;;;4944198;28;20484;-72
2022/03/20 03:19:56;;;;;;;3.83;3.53;;;4.00;99.90;;;;;;4944523;28;20043;-72
2022/03/20 03:22:24;;;;;;;3.27;2.97;;;4.00;99.90;;;;;;4943504;28;20039;-72
2022/03/20 03:24:49;;;;;;;3.97;3.43;;;4.00;99.90;;;;;;4944424;28;20043;-73
2022/03/20 03:27:15;;;;;;;2.33;2.23;;;4.00;99.90;;;;;;4944239;28;20106;-73
2022/03/20 03:29:40;;;;;;;6.40;3.83;;;4.00;99.90;;;;;;4944152;28;20043;-73
2022/03/20 03:32:06;;;;;;;2.10;2.00;;;3.90;99.90;;;;;;4944995;28;20051;-73
2022/03/20 03:37:20;;;;;;;8.70;5.53;;;3.90;99.90;;;;;;4946134;29;20058;-73
2022/03/20 03:39:46;;;;;;;5.03;3.57;;;3.90;99.90;;;;;;4947962;28;20043;-73
2022/03/20 03:42:12;;;;;;;6.33;3.77;;;3.90;99.90;;;;;;4948020;28;20047;-73
2022/03/20 03:44:39;;;;;;;3.57;3.20;;;3.90;99.90;;;;;;4968026;28;20101;-73
2022/03/20 03:47:04;;;;;;;5.20;3.70;;;3.80;99.90;;;;;;4967664;28;20130;-72
2022/03/20 03:49:30;;;;;;;6.93;4.23;;;3.80;99.90;;;;;;4967033;28;20134;-72
2022/03/20 03:51:56;;;;;;;4.90;4.50;;;3.80;99.90;;;;;;4966401;28;20147;-73
2022/03/20 03:54:22;;;;;;;5.50;2.93;;;3.80;99.90;;;;;;4965609;28;20039;-73
2022/03/20 03:56:47;;;;;;;4.67;4.17;;;3.70;99.90;;;;;;4967152;28;20101;-73
2022/03/20 03:59:13;;;;;;;2.57;2.40;;;3.80;99.90;;;;;;4966843;28;20038;-72
2022/03/20 04:01:38;;;;;;;3.73;3.07;;;3.80;99.90;;;;;;4967557;28;20043;-72
2022/03/20 04:04:04;;;;;;;4.57;3.70;;;3.70;99.90;;;;;;4967287;28;20116;-72
2022/03/20 04:06:29;;;;;;;2.63;2.47;;;3.70;99.90;;;;;;4966822;28;20482;-72
2022/03/20 04:08:55;;;;;;;4.43;3.33;;;3.70;99.90;;;;;;4965413;28;20069;-73
2022/03/20 04:11:21;;;;;;;5.47;3.53;;;3.70;99.90;;;;;;4966626;28;20047;-72
2022/03/20 04:13:46;;;;;;;8.57;4.57;;;3.60;99.90;;;;;;4965384;28;20133;-72
2022/03/20 04:16:12;;;;;;;5.87;4.63;;;3.60;99.90;;;;;;4966788;28;20054;-72
2022/03/20 04:18:38;;;;;;;5.00;4.60;;;3.60;99.90;;;;;;4967219;28;20611;-72
2022/03/20 04:21:04;;;;;;;6.40;4.80;;;3.60;99.90;;;;;;4966474;28;20097;-73
2022/03/20 04:23:45;;;;;;;8.97;3.33;;;3.60;99.90;;;;;;4965798;28;20046;-72
2022/03/20 04:26:14;;;;;;;4.37;3.97;;;3.60;99.90;;;;;;4964968;28;20054;-73
2022/03/20 04:28:40;;;;;;;6.80;4.10;;;3.60;99.90;;;;;;4966921;28;20511;-73
2022/03/20 04:31:06;;;;;;;9.67;5.90;;;3.50;99.90;;;;;;4966923;28;20049;-72
2022/03/20 04:33:31;;;;;;;2.87;2.67;;;3.50;99.90;;;;;;4965070;28;20137;-72
2022/03/20 04:35:57;;;;;;;9.70;5.23;;;3.50;99.90;;;;;;4966474;28;20053;-72
2022/03/20 04:38:23;;;;;;;6.67;4.53;;;3.50;99.90;;;;;;4949826;28;20413;-73
2022/03/20 04:40:49;;;;;;;7.23;4.93;;;3.40;99.90;;;;;;4947090;28;20054;-73
2022/03/20 04:43:17;;;;;;;6.87;4.93;;;3.40;99.90;;;;;;4947105;28;20043;-73
2022/03/20 04:45:43;;;;;;;5.43;4.93;;;3.50;99.90;;;;;;4959558;28;20051;-72
2022/03/20 04:59:06;;;;;;;5.57;4.90;;;3.40;99.90;;;;;;4966286;28;20063;-72
2022/03/20 05:01:32;;;;;;;7.23;5.37;;;3.30;99.90;;;;;;4965531;28;20042;-72
2022/03/20 05:03:58;;;;;;;3.97;3.40;;;3.30;99.90;;;;;;4965687;28;20046;-72
2022/03/20 05:06:24;;;;;;;5.40;5.00;;;3.30;99.90;;;;;;4964849;28;20125;-73
2022/03/20 05:08:49;;;;;;;8.33;3.77;;;3.30;99.90;;;;;;4965146;28;20051;-72
2022/03/20 05:13:59;;;;;;;6.53;3.70;;;3.20;99.90;;;;;;4965687;28;20121;-72
2022/03/20 05:16:25;;;;;;;5.20;4.03;;;3.20;99.90;;;;;;4965593;28;20050;-72
2022/03/20 05:18:50;;;;;;;6.43;4.63;;;3.20;99.90;;;;;;4965938;28;20461;-72
2022/03/20 05:21:16;;;;;;;6.90;6.03;;;3.20;99.90;;;;;;4965503;28;20043;-72
2022/03/20 05:23:41;;;;;;;7.23;4.33;;;3.20;99.90;;;;;;4965174;28;20055;-72
2022/03/20 05:26:07;;;;;;;5.50;4.93;;;3.20;99.90;;;;;;4964600;28;20521;-72
2022/03/20 05:28:32;;;;;;;9.97;6.33;;;3.20;99.90;;;;;;4965041;28;20047;-72
2022/03/20 05:30:58;;;;;;;8.17;6.27;;;3.20;99.90;;;;;;4965354;28;20046;-72
2022/03/20 05:33:24;;;;;;;4.63;4.23;;;3.20;99.90;;;;;;4965428;28;20054;-72
2022/03/20 05:35:49;;;;;;;6.53;4.53;;;3.20;99.90;;;;;;4964060;28;20054;-72
2022/03/20 05:38:15;;;;;;;4.63;3.73;;;3.20;99.90;;;;;;4947916;28;20039;-72
2022/03/20 05:40:42;;;;;;;6.37;4.77;;;3.20;99.90;;;;;;4946144;28;20498;-72
2022/03/20 05:43:08;;;;;;;4.23;3.93;;;3.20;99.90;;;;;;4946388;28;20054;-72
2022/03/20 05:45:37;;;;;;;3.23;2.97;;;3.20;99.90;;;;;;4957867;28;20046;-73
2022/03/20 05:48:03;;;;;;;6.57;4.10;;;3.10;99.90;;;;;;4963916;28;20509;-73
2022/03/20 05:50:29;;;;;;;9.20;5.73;;;3.10;99.90;;;;;;4964898;28;20094;-73
2022/03/20 05:52:54;;;;;;;6.03;5.50;;;3.10;99.90;;;;;;4964382;28;20053;-73
2022/03/20 05:58:01;;;;;;;8.63;5.73;;;3.10;99.90;;;;;;4950329;28;20083;-73
2022/03/20 05:58:11;;;;;;;6.93;6.40;;;3.10;99.90;;;;;;4955268;28;20166;-73
2022/03/20 06:00:40;;;;;;;3.70;3.20;;;3.10;99.90;;;;;;4964153;28;20154;-73
2022/03/20 06:03:05;;;;;;;10.13;6.17;;;3.10;99.90;;;;;;4965489;28;20046;-73
2022/03/20 06:05:31;;;;;;;7.53;5.33;;;3.10;99.90;;;;;;4964531;28;20511;-73
2022/03/20 06:07:56;;;;;;;6.00;5.40;;;3.10;99.90;;;;;;4963735;28;20073;-73
2022/03/20 06:10:22;;;;;;;7.13;6.40;;;3.10;99.90;;;;;;4964265;28;20453;-72
2022/03/20 06:12:47;;;;;;;12.33;5.40;;;3.10;99.90;;;;;;4964660;28;20034;-72
2022/03/20 06:15:13;;;;;;;5.73;4.53;;;3.10;99.90;;;;;;4963051;28;20062;-72
2022/03/20 06:17:41;;;;;;;7.33;6.20;;;3.10;99.90;;;;;;4964877;28;20039;-72
2022/03/20 06:20:08;;;;;;;10.40;6.17;;;3.10;99.90;;;;;;4963619;28;20142;-73
2022/03/20 06:22:35;;;;;;;4.97;4.57;;;3.10;99.90;;;;;;4959632;28;20035;-73
2022/03/20 06:25:08;;;;;;;13.07;6.30;;;3.10;99.90;;;;;;4945187;28;20047;-73
2022/03/20 06:27:40;;;;;;;9.57;6.30;;;3.10;99.90;;;;;;4944467;29;20078;-73
2022/03/20 06:30:06;;;;;;;8.67;5.83;;;3.10;99.90;;;;;;4945470;28;20063;-72
2022/03/20 06:32:32;;;;;;;6.53;5.93;;;3.10;99.90;;;;;;4954956;28;20043;-72
2022/03/20 06:34:57;;;;;;;5.30;4.70;;;3.10;99.90;;;;;;4964121;28;20097;-73
2022/03/20 06:37:23;;;;;;;7.80;6.47;;;3.10;99.90;;;;;;4963033;28;20042;-72
2022/03/20 06:39:48;;;;;;;6.57;5.97;;;3.20;99.90;;;;;;4964015;28;20489;-73
2022/03/20 06:42:14;;;;;;;9.17;5.47;;;3.20;99.90;;;;;;4964238;28;20719;-73
2022/03/20 06:44:39;;;;;;;5.93;5.27;;;3.20;99.90;;;;;;4963985;28;20049;-72
2022/03/20 06:47:05;;;;;;;9.30;5.57;;;3.20;99.90;;;;;;4964543;28;20118;-72
2022/03/20 06:49:31;;;;;;;9.87;5.60;;;3.20;99.90;;;;;;4963586;28;20050;-73
2022/03/20 06:51:57;;;;;;;6.80;6.00;;;3.20;99.90;;;;;;4963184;28;20713;-73
2022/03/20 06:54:22;;;;;;;6.57;5.33;;;3.20;99.90;;;;;;4954427;28;20047;-73
2022/03/20 06:56:48;;;;;;;5.90;5.17;;;3.20;99.90;;;;;;4944632;28;20549;-72
2022/03/20 06:59:15;;;;;;;8.63;6.23;;;3.30;99.90;;;;;;4944553;28;20043;-72
2022/03/20 07:01:40;;;;;;;29.70;5.93;;;3.30;99.90;;;;;;4947049;28;20054;-72
2022/03/20 07:04:06;;;;;;;6.30;5.47;;;3.30;99.90;;;;;;4946886;28;20112;-72
2022/03/20 07:06:33;;;;;;;10.50;7.27;;;3.30;99.90;;;;;;4962686;28;20448;-72
2022/03/20 07:09:00;;;;;;;9.87;6.50;;;3.40;99.90;;;;;;4947831;28;20051;-72
2022/03/20 07:11:32;;;;;;;5.63;5.13;;;3.40;99.90;;;;;;4943174;28;20062;-72
2022/03/20 07:13:59;;;;;;;5.68;5.18;;;3.40;99.90;;;;;;4944547;28;20177;-72
2022/03/20 07:16:30;;;;;;;8.03;7.40;;;3.40;99.90;;;;;;4944200;28;20070;-72
2022/03/20 07:18:55;;;;;;;7.20;6.63;;;3.50;99.90;;;;;;4943246;28;20818;-72
2022/03/20 07:21:22;;;;;;;4.40;4.07;;;3.50;99.90;;;;;;4943679;28;20051;-72
2022/03/20 07:23:47;;;;;;;8.30;5.67;;;3.50;99.90;;;;;;4963988;28;20042;-72
2022/03/20 07:31:41;;;;;;;6.97;6.27;;;3.60;99.90;;;;;;4962215;28;20058;-73
2022/03/20 07:34:07;;;;;;;8.67;6.63;;;3.60;99.90;;;;;;4964176;28;20050;-73
2022/03/20 07:36:32;;;;;;;11.87;4.67;;;3.60;99.90;;;;;;4962376;28;20086;-72
2022/03/20 07:38:59;;;;;;;7.03;5.90;;;3.60;99.90;;;;;;4963337;28;20054;-72
2022/03/20 07:41:24;;;;;;;7.40;6.50;;;3.70;99.90;;;;;;4963075;28;20046;-72
2022/03/20 07:43:50;;;;;;;11.83;6.77;;;3.70;99.90;;;;;;4960487;28;20109;-72
2022/03/20 07:46:16;;;;;;;9.13;6.10;;;3.70;99.90;;;;;;4961537;28;20047;-73
2022/03/20 07:48:41;;;;;;;11.63;7.23;;;3.80;99.90;;;;;;4963226;28;20050;-72
2022/03/20 07:51:07;;;;;;;7.00;5.40;;;3.80;99.90;;;;;;4962888;28;20047;-73
2022/03/20 07:53:33;;;;;;;7.27;5.87;;;3.80;99.90;;;;;;4962067;28;20055;-73
2022/03/20 07:55:58;;;;;;;10.90;7.13;;;3.80;99.90;;;;;;4963396;28;20077;-73
2022/03/20 07:58:24;;;;;;;7.60;6.90;;;3.90;99.90;;;;;;4962258;28;20520;-73
2022/03/20 08:00:50;;;;;;;8.27;7.53;;;3.90;99.90;;;;;;4945833;28;20051;-73
2022/03/20 08:03:15;;;;;;;6.50;5.90;;;3.90;99.90;;;;;;4943950;28;20050;-72
2022/03/20 08:05:41;;;;;;;18.30;6.90;;;4.00;99.90;;;;;;4944066;28;20055;-73
2022/03/20 08:08:11;;;;;;;8.63;7.17;;;4.00;99.90;;;;;;4942378;28;20054;-73
2022/03/20 08:10:36;;;;;;;6.43;5.93;;;4.00;99.90;;;;;;4944257;28;20047;-73
2022/03/20 08:13:02;;;;;;;9.17;7.33;;;4.10;99.90;;;;;;4954973;28;20054;-73
2022/03/20 08:15:27;;;;;;;9.53;6.40;;;4.10;99.90;;;;;;4950735;28;20055;-73
2022/03/20 08:17:53;;;;;;;10.10;8.07;;;4.10;99.90;;;;;;4959617;28;20141;-73
2022/03/20 08:20:19;;;;;;;17.57;8.33;;;4.10;99.90;;;;;;4962027;28;20051;-73
2022/03/20 08:22:45;;;;;;;8.23;6.37;;;4.20;99.90;;;;;;4965224;28;20054;-72
2022/03/20 08:25:10;;;;;;;9.57;5.37;;;4.20;99.90;;;;;;4965533;28;20054;-73
2022/03/20 08:27:47;;;;;;;8.37;6.87;;;4.30;99.90;;;;;;4966919;28;20389;-73
2022/03/20 08:30:17;;;;;;;7.93;6.00;;;4.30;99.90;;;;;;4966538;28;20047;-73
2022/03/20 08:32:47;;;;;;;9.37;8.40;;;4.40;99.90;;;;;;4963785;28;20045;-73
2022/03/20 08:35:19;;;;;;;9.60;6.73;;;4.40;99.90;;;;;;4964650;28;20058;-73
2022/03/20 08:37:45;;;;;;;6.13;5.55;;;4.40;99.90;;;;;;4963832;28;20113;-72
2022/03/20 08:40:15;;;;;;;8.13;6.57;;;4.50;99.90;;;;;;4964737;28;20062;-73
2022/03/20 08:42:44;;;;;;;6.83;5.83;;;4.50;99.90;;;;;;4966582;28;20047;-73
2022/03/20 08:45:11;;;;;;;12.43;8.20;;;4.60;99.90;;;;;;4964955;28;20553;-73
2022/03/20 08:47:37;;;;;;;9.53;7.00;;;4.60;99.90;;;;;;4965469;28;20046;-72
2022/03/20 08:50:04;;;;;;;10.43;9.00;;;4.60;99.90;;;;;;4965474;28;20556;-73
2022/03/20 08:52:29;;;;;;;13.97;6.47;;;4.70;99.90;;;;;;4965433;28;20409;-74
2022/03/20 08:54:55;;;;;;;7.30;6.70;;;4.70;99.90;;;;;;4966023;28;20042;-73
2022/03/20 08:57:21;;;;;;;6.77;6.30;;;4.70;99.90;;;;;;4964964;28;20054;-72
2022/03/20 08:59:46;;;;;;;7.50;6.80;;;4.80;99.90;;;;;;4966222;28;20053;-72
2022/03/20 09:02:12;;;;;;;8.80;7.37;;;4.80;99.90;;;;;;4961712;28;20043;-73
2022/03/20 09:04:37;;;;;;;9.03;5.03;;;4.80;99.90;;;;;;4964374;28;20046;-73
2022/03/20 09:07:03;;;;;;;9.83;7.60;;;4.90;99.90;;;;;;4963843;28;20039;-73
2022/03/20 09:09:28;;;;;;;8.17;6.97;;;4.90;99.90;;;;;;4965285;28;20104;-73
2022/03/20 09:11:54;;;;;;;8.93;6.37;;;5.00;99.90;;;;;;4965450;28;20042;-73
2022/03/20 09:14:20;;;;;;;9.98;7.85;;;5.00;99.90;;;;;;4964897;28;20078;-73
2022/03/20 09:19:30;;;;;;;10.17;9.20;;;5.10;99.90;;;;;;4964572;28;20611;-72
2022/03/20 09:21:56;;;;;;;7.60;7.00;;;5.10;99.90;;;;;;4963882;28;20042;-73
2022/03/20 09:24:21;;;;;;;11.47;8.40;;;5.10;99.90;;;;;;4976664;28;20030;-75
2022/03/20 09:26:47;;;;;;;6.97;6.33;;;5.20;99.90;;;;;;4983722;28;20053;-73
2022/03/20 09:29:14;;;;;;;13.07;9.23;;;5.20;99.90;;;;;;4984976;28;20048;-76
2022/03/20 09:31:39;;;;;;;8.63;7.82;;;5.30;99.90;;;;;;4962682;28;20421;-78
2022/03/20 09:34:05;;;;;;;8.47;7.67;;;5.30;99.90;;;;;;4964722;28;20050;-78
2022/03/20 09:36:31;;;;;;;10.13;6.70;;;5.30;99.90;;;;;;4963265;28;20031;-80
2022/03/20 09:38:56;;;;;;;15.93;8.57;;;5.40;99.90;;;;;;4948182;28;20043;-77
2022/03/20 09:41:32;;;;;;;30.65;9.32;;;5.50;99.90;;;;;;4964446;28;20078;-76
2022/03/20 09:43:58;;;;;;;13.20;7.97;;;5.50;99.90;;;;;;4959803;28;20142;-75
2022/03/20 09:46:25;;;;;;;12.23;6.90;;;5.50;99.90;;;;;;4964731;28;20121;-75
2022/03/20 09:48:53;;;;;;;14.07;9.57;;;5.60;99.90;;;;;;4947524;28;20050;-75
2022/03/20 09:51:18;;;;;;;10.00;6.65;;;5.60;99.90;;;;;;4963665;28;20055;-77
2022/03/20 09:53:44;;;;;;;12.27;9.15;;;5.60;99.90;;;;;;4963797;28;20561;-75
2022/03/20 09:56:11;;;;;;;15.65;7.53;;;5.70;99.90;;;;;;4965074;28;20066;-76
2022/03/20 09:58:36;;;;;;;15.85;8.25;;;5.70;99.90;;;;;;4961636;28;20493;-79
2022/03/20 10:01:02;;;;;;;10.88;7.25;;;5.80;99.90;;;;;;4962098;28;20051;-78
2022/03/20 10:03:28;;;;;;;14.30;8.77;;;5.80;99.90;;;;;;4963855;28;20134;-79
2022/03/20 10:06:17;;;;;;;8.05;7.10;;;5.80;99.90;;;;;;4963842;28;20046;-79
2022/03/20 10:08:55;;;;;;;8.68;5.95;;;5.90;99.90;;;;;;4963256;28;20078;-79
2022/03/20 10:11:21;;;;;;;7.55;6.18;;;5.90;99.90;;;;;;4962728;28;20125;-80
2022/03/20 10:14:06;;;;;;;8.85;7.30;;;5.90;99.90;;;;;;4964157;28;20472;-79
2022/03/20 10:16:32;;;;;;;14.15;8.52;;;6.00;99.90;;;;;;4964029;28;20083;-79
2022/03/20 10:18:58;;;;;;;15.75;9.73;;;6.00;99.90;;;;;;4964511;28;20043;-80
2022/03/20 10:21:45;;;;;;;9.35;7.22;;;6.00;99.90;;;;;;4963416;28;20047;-74
2022/03/20 10:24:16;;;;;;;8.50;7.68;;;6.10;99.90;;;;;;4962931;28;20101;-75
2022/03/20 10:26:42;;;;;;;7.97;7.22;;;6.10;99.90;;;;;;4949156;28;20050;-74
2022/03/20 10:29:17;;;;;;;12.70;9.32;;;6.20;99.90;;;;;;4946189;28;20421;-74
2022/03/20 10:31:50;;;;;;;9.15;8.32;;;6.20;99.90;;;;;;4951980;28;20131;-74
2022/03/20 10:34:17;;;;;;;13.93;10.43;;;6.20;99.90;;;;;;4969758;28;20604;-75
2022/03/20 10:36:44;;;;;;;10.70;9.40;;;6.30;99.90;;;;;;4965093;28;20567;-74
2022/03/20 10:39:16;;;;;;;9.82;8.88;;;6.30;99.90;;;;;;4966206;28;20126;-74
2022/03/20 10:41:43;;;;;;;12.23;8.57;;;6.40;99.90;;;;;;4963568;28;20435;-74
2022/03/20 10:44:18;;;;;;;7.43;6.78;;;6.40;99.90;;;;;;4951839;28;20061;-79
2022/03/20 10:47:16;;;;;;;12.32;8.55;;;6.40;99.90;;;;;;4960927;28;20417;-82
2022/03/20 10:49:47;;;;;;;13.60;8.00;;;6.50;99.90;;;;;;4945712;28;20573;-88
2022/03/20 10:52:19;;;;;;;10.98;7.53;;;6.50;99.90;;;;;;4963511;28;20498;-81
2022/03/20 10:54:46;;;;;;;7.78;6.80;;;6.50;99.90;;;;;;4959299;28;20053;-85
2022/03/20 10:57:14;;;;;;;9.40;7.10;;;6.60;99.90;;;;;;4963985;28;20035;-79
2022/03/20 10:59:41;;;;;;;8.07;6.70;;;6.70;99.90;;;;;;4963498;28;20498;-82
2022/03/20 11:02:24;;;;;;;11.25;8.88;;;6.70;99.90;;;;;;4959203;28;20062;-87
2022/03/20 11:04:50;;;;;;;;;;;6.80;99.90;;;;;;4978588;28;20516;-79
2022/03/20 11:07:19;;;;;;;11.63;7.78;;;6.80;99.90;;;;;;4975775;28;19931;-79
2022/03/20 11:09:47;;;;;;;10.88;8.27;;;6.90;99.90;;;;;;4957806;28;20102;-79
2022/03/20 11:12:17;;;;;;;11.80;8.85;;;6.90;99.90;;;;;;4950705;28;20047;-77
2022/03/20 11:14:44;;;;;;;7.85;7.13;;;6.90;99.90;;;;;;4959181;28;20074;-76
2022/03/20 11:17:14;;;;;;;12.80;9.93;;;7.00;99.90;;;;;;4952521;28;20061;-78
2022/03/20 11:19:43;;;;;;;8.40;6.95;;;7.00;99.90;;;;;;4952583;28;20136;-76
2022/03/20 11:22:12;;;;;;;15.48;8.63;;;7.10;99.90;;;;;;4943403;28;20104;-80
2022/03/20 11:24:40;;;;;;;11.23;8.48;;;7.10;99.90;;;;;;4958280;28;20043;-77
2022/03/20 11:27:08;;;;;;;14.02;9.73;;;7.20;99.90;;;;;;4975501;28;20046;-77
2022/03/20 11:29:44;;;;;;;9.25;8.23;;;7.20;99.90;;;;;;4958030;28;20545;-80
2022/03/20 11:32:10;;;;;;;9.05;8.05;;;7.20;99.90;;;;;;4952259;28;20036;-78
2022/03/20 11:34:37;;;;;;;9.85;8.55;;;7.30;99.90;;;;;;4959434;28;20042;-79
2022/03/20 11:37:11;;;;;;;9.73;8.93;;;7.30;99.90;;;;;;4948203;28;20085;-77
2022/03/20 11:39:57;;;;;;;17.33;7.65;;;7.40;99.90;;;;;;4972775;28;20057;-76
2022/03/20 11:42:27;;;;;;;14.55;9.52;;;7.40;99.90;;;;;;4949665;28;20145;-77
2022/03/20 11:45:08;;;;;;;12.00;9.73;;;7.50;99.90;;;;;;4963266;28;20101;-76
2022/03/20 11:47:42;;;;;;;9.15;8.07;;;7.50;99.90;;;;;;4951768;28;20548;-76
2022/03/20 11:50:13;;;;;;;21.73;8.90;;;7.50;99.90;;;;;;4948404;28;20563;-76
2022/03/20 11:52:48;;;;;;;14.55;9.18;;;7.60;99.90;;;;;;4960774;28;20063;-76
2022/03/20 11:55:24;;;;;;;12.57;9.02;;;7.60;99.90;;;;;;4963214;28;20138;-76
2022/03/20 11:57:50;;;;;;;9.93;8.90;;;7.70;99.90;;;;;;4965328;28;20407;-76
2022/03/20 12:00:19;;;;;;;12.32;9.13;;;7.70;99.90;;;;;;4964669;28;20058;-76
2022/03/20 12:02:50;;;;;;;13.77;9.63;;;7.80;99.90;;;;;;4966263;28;20057;-76
2022/03/20 12:05:26;;;;;;;9.98;8.95;;;7.90;99.90;;;;;;4965668;28;20078;-76
2022/03/20 12:08:23;;;;;;;10.32;9.32;;;7.90;99.90;;;;;;4971641;28;20076;-76
2022/03/20 12:11:05;;;;;;;14.75;8.20;;;7.90;99.90;;;;;;4958153;28;20093;-81
2022/03/20 12:13:59;;;;;;;18.45;9.38;;;8.00;99.90;;;;;;4965935;28;20478;-79
2022/03/20 12:16:43;;;;;;;12.65;9.20;;;8.00;99.90;;;;;;4965344;28;20039;-79
2022/03/20 12:19:14;;;;;;;9.82;8.13;;;8.10;99.90;;;;;;4965750;28;20039;-88
2022/03/20 12:21:54;;;;;;;9.90;8.95;;;8.20;99.90;;;;;;4965773;28;20074;-83
2022/03/20 12:24:54;;;;;;;9.68;8.65;;;8.20;99.90;;;;;;4949073;28;20055;-79
2022/03/20 12:27:23;;;;;;;9.80;8.63;;;8.20;99.90;;;;;;4952673;28;20143;-80
2022/03/20 12:29:53;;;;;;;8.77;7.82;;;8.20;99.90;;;;;;4950041;28;20038;-83
2022/03/20 12:32:20;;;;;;;9.75;8.85;;;8.20;99.90;;;;;;4966189;28;20043;-83
2022/03/20 12:35:08;;;;;;;11.38;9.70;;;8.20;99.90;;;;;;4949599;28;20047;-81
2022/03/20 12:37:38;;;;;;;7.82;7.10;;;8.20;99.90;;;;;;4949927;28;20042;-79
2022/03/20 12:40:18;;;;;;;14.00;8.68;;;8.30;99.90;;;;;;4966100;28;20114;-82
2022/03/20 12:42:56;;;;;;;14.07;9.73;;;8.40;99.90;;;;;;4949727;28;20042;-80
2022/03/20 12:45:23;;;;;;;9.88;7.75;;;8.40;99.90;;;;;;4965477;28;20039;-83
2022/03/20 12:47:57;;;;;;;10.75;9.10;;;8.40;99.90;;;;;;4966369;28;20074;-81
2022/03/20 12:50:37;;;;;;;18.70;9.40;;;8.50;99.90;;;;;;4963223;28;20042;-79
2022/03/20 12:53:14;;;;;;;11.43;10.20;;;8.50;99.90;;;;;;4948744;28;20734;-87
2022/03/20 12:55:40;;;;;;;15.85;9.00;;;8.50;99.90;;;;;;4965868;28;20039;-82
2022/03/20 12:58:18;;;;;;;14.00;9.45;;;8.60;99.90;;;;;;4966383;28;20056;-88
2022/03/20 13:00:47;;;;;;;11.68;9.30;;;8.60;99.90;;;;;;4965238;28;20046;-88
2022/03/20 13:03:14;;;;;;;11.30;9.23;;;8.70;99.90;;;;;;4963413;28;20481;-81
2022/03/20 13:05:52;;;;;;;8.88;7.97;;;8.80;99.90;;;;;;4964771;28;20090;-78
2022/03/20 13:08:20;;;;;;;10.00;9.05;;;8.90;99.90;;;;;;4965594;28;20114;-78
2022/03/20 13:10:46;;;;;;;14.80;8.55;;;9.10;99.90;;;;;;4965838;28;20047;-76
2022/03/20 13:13:16;;;;;;;15.02;9.45;;;9.20;99.90;;;;;;4964939;28;20406;-76
2022/03/20 13:15:43;;;;;;;13.38;8.40;;;9.20;99.90;;;;;;4964476;28;20054;-76
2022/03/20 13:18:09;;;;;;;14.65;9.23;;;9.20;99.90;;;;;;4964630;28;20129;-76
2022/03/20 13:20:41;;;;;;;11.80;8.00;;;9.30;99.90;;;;;;4964563;28;20113;-76
2022/03/20 13:23:15;;;;;;;13.23;9.23;;;9.30;99.90;;;;;;4965075;28;20057;-76
2022/03/20 13:25:44;;;;;;;12.45;9.63;;;9.40;99.90;;;;;;4965273;28;20089;-76
2022/03/20 13:28:33;;;;;;;11.77;8.85;;;9.40;99.90;;;;;;4964337;28;20045;-77
2022/03/20 13:31:03;;;;;;;13.45;8.48;;;9.40;99.90;;;;;;4965634;28;20060;-76